Pagrindinis puslapis
METAR-TAF:

METAR-TAF

Oro uostai :

Longjyrbienas, Norvegija

platuma: 78-15N, ilguma: 015-28E, Aukštis: 2 m

Dabartinis oras

Ataskaita buvo paskelbta 28 minutes, ne 09:20 UTC
Vėjas 21 kt iš Rytų/Pietryčių
Temperatūra -8°C
Drėgmė 62%
Slėgis 1025 hPa
Matomumas 10 km arba daugiau
Mažai debesys ne aukštis 2000 ft

METAR: ENSB 190920Z 12021KT 9999 FEW020 M08/M14 Q1025 TEMPO 12021G31KT RMK WIND 1400FT 12025KT

Laikas: 10:48 (09:48 UTC)

Prognozė

Ataskaita buvo paskelbta 2 valandos ir 24 minutes, ne 07:24 UTC
Prognozė galioja nuo 19 metu 07 UTC su 20 metu 06 UTC
Vėjas 20 kt iš Pietryčių
Matomumas 10 km arba daugiau
Mažai debesys ne aukštis 2000 ft
Išsisklaidę debesys ne aukštis 5000 ft
Tikimybė 40% :
Laikinai
nuo 19 metu 07 UTC su 20 metu 06 UTC
Vėjas 20 kt iš Pietryčių su gūsio iki 30 kt

TAF: ENSB 190724Z 1907/2006 13020KT 9999 FEW020 SCT050 PROB40 TEMPO 1907/2006 13020G30KT

Orai ataskaitas ir orų prognozės (METAR, TAF).

turimą stotys yra geltonos ir raudonos taškus žemėlapyje.

Perkelti pele per norėdami pamatyti stoties vardą.

Tada spustelėkite, norėdami matyti oro stebėjimo ir prognozės.

Norėdami pakeisti žemėlapį: spustelėkite ant žalios mygtukų su juodo kryžiaus žemyn,; žalią mygtuką su brūkšneliu, jei norite nutolinti; arba žalių rodyklių gretimoms žemėlapius.


METAR-TAF: